createdAt,value
2022-11-16T00:01:32.323Z,99969.59
2022-11-16T00:03:59.716Z,99960.31
2022-11-16T00:06:26.480Z,99961.56
2022-11-16T00:09:11.807Z,99957.56
2022-11-16T00:11:38.583Z,99951.63
2022-11-16T00:14:05.375Z,99943.72
2022-11-16T00:16:33.248Z,99935.25
2022-11-16T00:19:00.200Z,99925.94
2022-11-16T00:21:26.950Z,99926.22
2022-11-16T00:23:53.718Z,99928.66
2022-11-16T00:26:20.459Z,99922.81
2022-11-16T00:28:47.196Z,99923.06
2022-11-16T00:31:13.951Z,99922.22
2022-11-16T00:33:40.701Z,99928.13
2022-11-16T00:36:07.492Z,99922.56
2022-11-16T00:38:34.606Z,99926.38
2022-11-16T00:41:01.559Z,99927.13
2022-11-16T00:43:28.307Z,99917.22
2022-11-16T00:45:55.073Z,99924.66
2022-11-16T00:48:21.836Z,99910.81
2022-11-16T00:50:48.607Z,99924.66
2022-11-16T00:53:15.440Z,99909.63
2022-11-16T00:55:42.216Z,99904.22
2022-11-16T00:58:08.978Z,99898.41
2022-11-16T01:00:35.764Z,99888.25
2022-11-16T01:03:02.520Z,99887.41
2022-11-16T01:05:29.278Z,99888.13
2022-11-16T01:07:56.077Z,99876.59
2022-11-16T01:10:22.823Z,99880.34
2022-11-16T01:12:49.714Z,99881.75
2022-11-16T01:15:16.480Z,99873.69
2022-11-16T01:17:43.283Z,99873.06
2022-11-16T01:20:10.159Z,99873.25
2022-11-16T01:22:36.914Z,99879.25
2022-11-16T01:25:03.685Z,99877.38
2022-11-16T01:27:30.432Z,99884.53
2022-11-16T01:29:57.202Z,99885.84
2022-11-16T01:32:24.012Z,99890.81
2022-11-16T01:34:50.915Z,99890.41
2022-11-16T01:37:17.690Z,99893.41
2022-11-16T01:39:44.464Z,99890.22
2022-11-16T01:42:11.207Z,99882.03
2022-11-16T01:44:37.957Z,99877.66
2022-11-16T01:47:04.702Z,99873.88
2022-11-16T01:49:31.444Z,99883.50
2022-11-16T01:51:58.217Z,99877.16
2022-11-16T01:54:24.968Z,99883.56
2022-11-16T01:56:51.794Z,99877.88
2022-11-16T01:59:18.812Z,99864.41
2022-11-16T02:01:45.992Z,99860.31
2022-11-16T02:04:12.810Z,99863.00
2022-11-16T02:06:39.581Z,99851.06
2022-11-16T02:09:25.186Z,99849.03
2022-11-16T02:11:51.959Z,99856.53
2022-11-16T02:14:18.720Z,99855.34
2022-11-16T02:16:48.076Z,99844.22
2022-11-16T02:19:14.895Z,99843.22
2022-11-16T02:21:41.654Z,99848.97
2022-11-16T02:24:08.466Z,99848.31
2022-11-16T02:26:35.241Z,99843.53
2022-11-16T02:29:01.988Z,99844.28
2022-11-16T02:31:28.731Z,99854.53
2022-11-16T02:33:55.486Z,99850.06
2022-11-16T02:36:22.233Z,99851.00
2022-11-16T02:38:49.008Z,99842.44
2022-11-16T02:41:15.802Z,99850.13
2022-11-16T02:43:42.620Z,99846.72
2022-11-16T02:46:09.372Z,99853.53
2022-11-16T02:48:36.446Z,99858.31
2022-11-16T02:51:03.378Z,99861.84
2022-11-16T02:53:30.135Z,99856.53
2022-11-16T02:55:56.924Z,99852.06
2022-11-16T02:58:23.664Z,99855.16
2022-11-16T03:00:50.480Z,99848.72
2022-11-16T03:03:17.309Z,99837.03
2022-11-16T03:05:44.064Z,99846.38
2022-11-16T03:08:10.827Z,99837.06
2022-11-16T03:11:15.977Z,99844.25
2022-11-16T03:13:42.780Z,99847.66
2022-11-16T03:16:09.519Z,99838.63
2022-11-16T03:18:36.605Z,99849.75
2022-11-16T03:21:03.540Z,99843.09
2022-11-16T03:23:30.848Z,99849.88
2022-11-16T03:25:57.639Z,99854.81
2022-11-16T03:28:25.248Z,99852.81
2022-11-16T03:30:52.008Z,99855.66
2022-11-16T03:33:18.782Z,99863.59
2022-11-16T03:35:45.589Z,99868.91
2022-11-16T03:38:12.331Z,99862.31
2022-11-16T03:40:39.092Z,99866.75
2022-11-16T03:43:05.848Z,99871.22
2022-11-16T03:45:32.610Z,99864.47
2022-11-16T03:47:59.404Z,99863.34
2022-11-16T03:50:26.179Z,99849.50
2022-11-16T03:52:52.924Z,99855.25
2022-11-16T03:55:19.697Z,99855.66
2022-11-16T03:57:46.448Z,99854.84
2022-11-16T04:00:13.196Z,99855.09
2022-11-16T04:02:39.968Z,99853.13
2022-11-16T04:05:25.539Z,99854.63
2022-11-16T04:08:10.741Z,99863.72
2022-11-16T04:10:56.055Z,99858.50
2022-11-16T04:13:41.281Z,99861.84
2022-11-16T04:16:26.562Z,99861.84
2022-11-16T04:19:12.078Z,99863.34
2022-11-16T04:21:57.337Z,99866.41
2022-11-16T04:24:24.110Z,99864.59
2022-11-16T04:27:09.340Z,99859.09
2022-11-16T04:29:36.131Z,99867.88
2022-11-16T04:32:21.504Z,99865.25
2022-11-16T04:35:06.899Z,99868.53
2022-11-16T04:37:48.773Z,99873.34
2022-11-16T04:40:15.560Z,99875.78
2022-11-16T04:42:42.312Z,99881.06
2022-11-16T04:45:27.924Z,99874.75
2022-11-16T04:47:54.704Z,99870.41
2022-11-16T04:50:21.523Z,99868.06
2022-11-16T04:52:48.319Z,99877.66
2022-11-16T04:55:15.057Z,99866.84
2022-11-16T04:57:41.809Z,99865.03
2022-11-16T05:00:08.587Z,99858.59
2022-11-16T05:02:35.380Z,99869.91
2022-11-16T05:05:02.132Z,99873.56
2022-11-16T05:07:28.953Z,99868.06
2022-11-16T05:09:55.855Z,99865.72
2022-11-16T05:12:22.743Z,99877.03
2022-11-16T05:14:49.525Z,99863.41
2022-11-16T05:17:16.276Z,99870.06
2022-11-16T05:20:01.950Z,99875.69
2022-11-16T05:22:28.698Z,99866.88
2022-11-16T05:24:55.455Z,99879.16
2022-11-16T05:27:22.827Z,99879.22
2022-11-16T05:29:49.682Z,99876.66
2022-11-16T05:32:16.636Z,99872.53
2022-11-16T05:34:43.504Z,99876.91
2022-11-16T05:37:10.257Z,99870.63
2022-11-16T05:39:37.034Z,99866.06
2022-11-16T05:42:03.801Z,99870.28
2022-11-16T05:44:30.568Z,99875.47
2022-11-16T05:46:57.340Z,99867.13
2022-11-16T05:49:24.133Z,99866.59
2022-11-16T05:51:50.902Z,99868.16
2022-11-16T05:54:18.557Z,99862.78
2022-11-16T05:56:45.345Z,99867.22
2022-11-16T05:59:16.300Z,99854.97
2022-11-16T06:01:43.421Z,99860.84
2022-11-16T06:04:10.309Z,99850.66
2022-11-16T06:06:37.089Z,99853.69
2022-11-16T06:09:03.874Z,99860.22
2022-11-16T06:11:35.473Z,99860.41
2022-11-16T06:14:03.032Z,99865.09
2022-11-16T06:16:29.819Z,99859.28
2022-11-16T06:18:56.592Z,99860.97
2022-11-16T06:21:23.350Z,99858.41
2022-11-16T06:23:50.109Z,99866.50
2022-11-16T06:26:16.900Z,99858.38
2022-11-16T06:28:43.635Z,99857.06
2022-11-16T06:31:10.427Z,99857.78
2022-11-16T06:33:37.333Z,99856.13
2022-11-16T06:36:04.263Z,99852.16
2022-11-16T06:38:31.164Z,99854.91
2022-11-16T06:40:58.209Z,99859.50
2022-11-16T06:43:24.961Z,99857.50
2022-11-16T06:45:51.727Z,99858.31
2022-11-16T06:48:18.502Z,99862.72
2022-11-16T06:50:45.259Z,99868.41
2022-11-16T06:53:12.030Z,99859.22
2022-11-16T06:55:38.856Z,99856.78
2022-11-16T06:58:05.597Z,99854.13
2022-11-16T07:00:32.436Z,99858.47
2022-11-16T07:02:59.198Z,99858.75
2022-11-16T07:05:25.991Z,99854.75
2022-11-16T07:07:52.756Z,99866.69
2022-11-16T07:10:19.513Z,99861.31
2022-11-16T07:12:46.250Z,99873.16
2022-11-16T07:15:13.040Z,99866.06
2022-11-16T07:17:39.851Z,99866.34
2022-11-16T07:20:06.591Z,99865.84
2022-11-16T07:22:33.334Z,99864.22
2022-11-16T07:25:00.098Z,99866.50
2022-11-16T07:27:26.860Z,99861.25
2022-11-16T07:29:53.607Z,99865.84
2022-11-16T07:32:20.372Z,99858.94
2022-11-16T07:34:47.174Z,99862.31
2022-11-16T07:37:13.942Z,99863.00
2022-11-16T07:39:40.775Z,99855.53
2022-11-16T07:42:11.508Z,99861.56
2022-11-16T07:44:38.531Z,99852.28
2022-11-16T07:47:05.371Z,99864.69
2022-11-16T07:49:32.131Z,99859.03
2022-11-16T07:51:58.948Z,99862.56
2022-11-16T07:54:25.706Z,99853.50
2022-11-16T07:56:52.646Z,99859.00
2022-11-16T07:59:19.394Z,99854.72
2022-11-16T08:01:46.208Z,99847.91
2022-11-16T08:04:15.247Z,99847.66
2022-11-16T08:06:42.004Z,99847.03
2022-11-16T08:09:08.785Z,99844.38
2022-11-16T08:11:35.579Z,99840.31
2022-11-16T08:14:02.347Z,99835.88
2022-11-16T08:16:29.178Z,99834.66
2022-11-16T08:18:55.980Z,99832.84
2022-11-16T08:21:22.747Z,99832.34
2022-11-16T08:23:52.672Z,99829.78
2022-11-16T08:26:23.687Z,99838.53
2022-11-16T08:28:51.187Z,99835.91
2022-11-16T08:31:18.023Z,99833.81
2022-11-16T08:33:44.772Z,99830.72
2022-11-16T08:36:14.437Z,99829.72
2022-11-16T08:38:41.421Z,99827.03
2022-11-16T08:41:08.292Z,99832.41
2022-11-16T08:43:35.863Z,99833.25
2022-11-16T08:46:03.068Z,99843.09
2022-11-16T08:48:29.876Z,99841.59
2022-11-16T08:51:16.395Z,99839.41
2022-11-16T08:53:43.371Z,99843.19
2022-11-16T08:56:11.584Z,99842.28
2022-11-16T08:58:38.323Z,99846.03
2022-11-16T09:01:05.096Z,99842.50
2022-11-16T09:03:31.863Z,99848.81
2022-11-16T09:05:58.609Z,99846.41
2022-11-16T09:08:25.377Z,99841.31
2022-11-16T09:10:52.130Z,99850.63
2022-11-16T09:13:18.932Z,99843.69
2022-11-16T09:15:45.709Z,99838.22
2022-11-16T09:18:12.500Z,99842.75
2022-11-16T09:20:39.265Z,99842.59
2022-11-16T09:23:06.016Z,99848.94
2022-11-16T09:25:32.787Z,99846.19
2022-11-16T09:27:59.638Z,99849.75
2022-11-16T09:30:26.387Z,99851.44
2022-11-16T09:32:53.175Z,99853.78
2022-11-16T09:35:20.781Z,99852.06
2022-11-16T09:37:47.533Z,99852.00
2022-11-16T09:40:14.291Z,99855.44
2022-11-16T09:42:41.122Z,99849.16
2022-11-16T09:45:08.854Z,99851.34
2022-11-16T09:47:35.624Z,99843.50
2022-11-16T09:50:03.917Z,99845.75
2022-11-16T09:52:31.554Z,99845.44
2022-11-16T09:54:58.367Z,99843.78
2022-11-16T09:57:25.134Z,99844.69
2022-11-16T09:59:51.902Z,99845.03
2022-11-16T10:02:18.692Z,99843.84
2022-11-16T10:04:47.095Z,99840.38
2022-11-16T10:07:13.914Z,99839.75
2022-11-16T10:09:40.712Z,99846.66
2022-11-16T10:12:07.532Z,99851.19
2022-11-16T10:14:35.487Z,99838.84
2022-11-16T10:17:02.246Z,99840.69
2022-11-16T10:19:28.990Z,99839.31
2022-11-16T10:21:55.729Z,99836.78
2022-11-16T10:24:22.493Z,99832.25
2022-11-16T10:26:49.251Z,99840.50
2022-11-16T10:29:15.987Z,99834.50
2022-11-16T10:31:42.779Z,99837.44
2022-11-16T10:34:09.541Z,99839.06
2022-11-16T10:36:36.307Z,99839.53
2022-11-16T10:39:03.096Z,99841.31
2022-11-16T10:41:29.955Z,99834.38
2022-11-16T10:43:56.728Z,99835.06
2022-11-16T10:46:23.496Z,99832.75
2022-11-16T10:48:50.303Z,99835.09
2022-11-16T10:51:17.108Z,99824.41
2022-11-16T10:53:44.162Z,99826.22
2022-11-16T10:56:11.985Z,99823.34
2022-11-16T10:58:38.734Z,99824.53
2022-11-16T11:01:05.543Z,99831.41
2022-11-16T11:03:32.736Z,99830.72
2022-11-16T11:05:59.817Z,99833.06
2022-11-16T11:08:26.781Z,99826.19
2022-11-16T11:10:53.523Z,99823.13
2022-11-16T11:13:20.291Z,99822.34
2022-11-16T11:15:48.044Z,99818.47
2022-11-16T11:18:14.822Z,99824.41
2022-11-16T11:20:44.793Z,99820.28
2022-11-16T11:23:12.144Z,99820.72
2022-11-16T11:25:38.905Z,99828.63
2022-11-16T11:28:05.663Z,99832.34
2022-11-16T11:30:32.462Z,99822.38
2022-11-16T11:32:59.272Z,99833.31
2022-11-16T11:35:26.119Z,99818.22
2022-11-16T11:37:52.888Z,99821.13
2022-11-16T11:40:19.636Z,99825.44
2022-11-16T11:42:46.388Z,99825.00
2022-11-16T11:45:13.178Z,99820.34
2022-11-16T11:47:57.413Z,99820.03
2022-11-16T11:50:25.162Z,99813.50
2022-11-16T11:52:51.943Z,99814.31
2022-11-16T11:55:18.700Z,99805.34
2022-11-16T11:57:45.524Z,99806.44
2022-11-16T12:00:12.282Z,99805.13
2022-11-16T12:02:39.111Z,99806.53
2022-11-16T12:05:05.932Z,99811.50
2022-11-16T12:07:32.724Z,99802.22
2022-11-16T12:09:59.508Z,99803.75
2022-11-16T12:12:26.291Z,99804.69
2022-11-16T12:14:53.051Z,99809.59
2022-11-16T12:17:19.810Z,99805.50
2022-11-16T12:19:46.600Z,99805.09
2022-11-16T12:22:13.497Z,99813.84
2022-11-16T12:24:40.246Z,99808.34
2022-11-16T12:27:07.019Z,99802.59
2022-11-16T12:29:34.231Z,99804.69
2022-11-16T12:32:01.102Z,99803.03
2022-11-16T12:34:28.063Z,99808.78
2022-11-16T12:36:54.811Z,99811.56
2022-11-16T12:39:21.588Z,99812.88
2022-11-16T12:41:48.372Z,99818.94
2022-11-16T12:44:17.195Z,99816.44
2022-11-16T12:46:43.987Z,99812.19
2022-11-16T12:49:10.807Z,99811.50
2022-11-16T12:51:37.545Z,99815.81
2022-11-16T12:54:04.356Z,99815.22
2022-11-16T12:56:31.305Z,99804.84
2022-11-16T12:58:58.088Z,99808.47
2022-11-16T13:01:24.903Z,99804.88
2022-11-16T13:03:51.814Z,99799.94
2022-11-16T13:06:18.646Z,99791.69
2022-11-16T13:08:45.403Z,99796.94
2022-11-16T13:11:12.613Z,99801.06
2022-11-16T13:13:39.421Z,99799.56
2022-11-16T13:16:06.290Z,99799.91
2022-11-16T13:18:33.059Z,99802.88
2022-11-16T13:20:59.832Z,99799.53
2022-11-16T13:23:26.667Z,99791.78
2022-11-16T13:25:53.452Z,99791.78
2022-11-16T13:28:20.233Z,99790.19
2022-11-16T13:30:46.972Z,99782.53
2022-11-16T13:33:13.792Z,99777.63
2022-11-16T13:35:40.568Z,99779.44
2022-11-16T13:38:07.313Z,99767.69
2022-11-16T13:40:34.179Z,99773.69
2022-11-16T13:43:00.942Z,99777.72
2022-11-16T13:45:27.704Z,99780.66
2022-11-16T13:47:54.491Z,99779.91
2022-11-16T13:50:21.309Z,99780.81
2022-11-16T13:53:36.383Z,99780.47
2022-11-16T13:55:34.910Z,99778.03
2022-11-16T13:58:01.750Z,99777.22
2022-11-16T14:00:28.495Z,99770.66
2022-11-16T14:02:59.990Z,99769.53
2022-11-16T14:05:27.981Z,99765.25
2022-11-16T14:07:54.747Z,99773.31
2022-11-16T14:10:21.524Z,99762.56
2022-11-16T14:12:48.288Z,99757.84
2022-11-16T14:15:15.026Z,99760.97
2022-11-16T14:17:41.812Z,99760.88
2022-11-16T14:20:08.608Z,99766.63
2022-11-16T14:22:35.415Z,99763.28
2022-11-16T14:25:02.252Z,99763.88
2022-11-16T14:27:30.841Z,99770.41
2022-11-16T14:29:57.837Z,99769.56
2022-11-16T14:32:24.600Z,99774.88
2022-11-16T14:34:51.347Z,99771.22
2022-11-16T14:37:18.092Z,99772.34
2022-11-16T14:39:44.850Z,99771.59
2022-11-16T14:42:11.609Z,99777.66
2022-11-16T14:44:38.891Z,99769.91
2022-11-16T14:47:05.743Z,99764.91
2022-11-16T14:49:32.501Z,99761.06
2022-11-16T14:51:59.356Z,99760.66
2022-11-16T14:54:26.482Z,99758.44
2022-11-16T14:56:53.250Z,99759.06
2022-11-16T14:59:20.190Z,99752.41
2022-11-16T15:01:47.040Z,99754.41
2022-11-16T15:04:13.887Z,99756.31
2022-11-16T15:06:40.740Z,99747.09
2022-11-16T15:09:07.589Z,99755.38
2022-11-16T15:11:52.828Z,99749.50
2022-11-16T15:14:19.663Z,99751.41
2022-11-16T15:16:46.416Z,99751.41
2022-11-16T15:19:13.168Z,99757.53
2022-11-16T15:21:39.951Z,99751.22
2022-11-16T15:24:29.369Z,99747.16
2022-11-16T15:26:53.738Z,99739.53
2022-11-16T15:29:20.516Z,99742.34
2022-11-16T15:31:47.263Z,99743.63
2022-11-16T15:34:14.075Z,99750.41
2022-11-16T15:36:40.867Z,99746.72
2022-11-16T15:39:07.699Z,99744.56
2022-11-16T15:41:34.472Z,99745.66
2022-11-16T15:44:13.978Z,99747.13
2022-11-16T15:46:41.730Z,99745.25
2022-11-16T15:49:08.473Z,99740.91
2022-11-16T15:51:35.232Z,99743.25
2022-11-16T15:54:02.005Z,99746.03
2022-11-16T15:56:28.788Z,99748.78
2022-11-16T15:58:55.534Z,99741.00
2022-11-16T16:01:22.328Z,99748.41
2022-11-16T16:03:49.100Z,99744.72
2022-11-16T16:06:15.862Z,99744.75
2022-11-16T16:08:42.992Z,99748.34
2022-11-16T16:11:09.828Z,99753.94
2022-11-16T16:13:36.909Z,99748.84
2022-11-16T16:16:03.868Z,99741.53
2022-11-16T16:18:43.099Z,99742.56
2022-11-16T16:21:09.880Z,99748.56
2022-11-16T16:23:36.789Z,99739.31
2022-11-16T16:26:03.728Z,99737.56
2022-11-16T16:28:30.600Z,99737.03
2022-11-16T16:30:57.348Z,99749.03
2022-11-16T16:33:28.451Z,99743.09
2022-11-16T16:35:55.213Z,99741.53
2022-11-16T16:38:22.180Z,99738.50
2022-11-16T16:40:48.924Z,99750.91
2022-11-16T16:43:15.750Z,99742.31
2022-11-16T16:45:43.623Z,99744.25
2022-11-16T16:48:11.620Z,99748.78
2022-11-16T16:50:38.379Z,99750.56
2022-11-16T16:53:05.139Z,99761.59
2022-11-16T16:55:37.041Z,99756.63
2022-11-16T16:58:04.366Z,99758.91
2022-11-16T17:00:31.107Z,99768.97
2022-11-16T17:02:58.484Z,99761.00
2022-11-16T17:05:26.192Z,99763.66
2022-11-16T17:07:52.931Z,99766.22
2022-11-16T17:10:19.689Z,99767.31
2022-11-16T17:12:46.998Z,99768.56
2022-11-16T17:15:19.054Z,99769.66
2022-11-16T17:17:46.178Z,99770.22
2022-11-16T17:20:13.309Z,99765.97
2022-11-16T17:22:41.694Z,99772.16
2022-11-16T17:25:08.511Z,99772.13
2022-11-16T17:27:35.291Z,99771.44
2022-11-16T17:30:02.123Z,99767.31
2022-11-16T17:32:28.936Z,99768.56
2022-11-16T17:34:55.700Z,99772.06
2022-11-16T17:37:22.444Z,99768.88
2022-11-16T17:39:49.198Z,99765.91
2022-11-16T17:42:15.970Z,99773.38
2022-11-16T17:44:42.767Z,99780.41
2022-11-16T17:47:09.553Z,99780.66
2022-11-16T17:49:36.307Z,99782.72
2022-11-16T17:52:04.394Z,99774.81
2022-11-16T17:54:31.177Z,99780.28
2022-11-16T17:56:57.933Z,99783.38
2022-11-16T17:59:29.223Z,99791.44
2022-11-16T18:01:57.767Z,99793.16
2022-11-16T18:04:24.535Z,99793.19
2022-11-16T18:06:51.350Z,99781.69
2022-11-16T18:09:18.643Z,99781.09
2022-11-16T18:11:45.419Z,99787.16
2022-11-16T18:14:12.307Z,99784.16
2022-11-16T18:16:42.217Z,99785.06
2022-11-16T18:19:09.821Z,99787.50
2022-11-16T18:21:36.564Z,99790.38
2022-11-16T18:24:03.303Z,99788.06
2022-11-16T18:26:30.055Z,99788.06
2022-11-16T18:28:56.817Z,99795.66
2022-11-16T18:31:23.611Z,99791.97
2022-11-16T18:33:50.440Z,99791.38
2022-11-16T18:36:17.262Z,99786.22
2022-11-16T18:38:44.020Z,99790.69
2022-11-16T18:41:10.767Z,99784.25
2022-11-16T18:43:37.959Z,99780.13
2022-11-16T18:46:04.842Z,99787.91
2022-11-16T18:48:31.629Z,99779.22
2022-11-16T18:50:58.422Z,99775.78
2022-11-16T18:53:25.167Z,99777.34
2022-11-16T18:55:57.485Z,99773.97
2022-11-16T18:58:49.248Z,99772.97
2022-11-16T19:01:11.576Z,99767.66
2022-11-16T19:03:38.337Z,99779.72
2022-11-16T19:06:07.386Z,99780.72
2022-11-16T19:08:34.145Z,99771.38
2022-11-16T19:11:00.892Z,99775.91
2022-11-16T19:13:28.323Z,99774.53
2022-11-16T19:15:55.091Z,99769.50
2022-11-16T19:18:22.307Z,99769.25
2022-11-16T19:20:49.127Z,99759.69
2022-11-16T19:23:16.042Z,99758.56
2022-11-16T19:25:42.804Z,99757.56
2022-11-16T19:28:09.556Z,99758.78
2022-11-16T19:30:36.328Z,99764.16
2022-11-16T19:33:03.971Z,99765.53
2022-11-16T19:35:30.732Z,99762.22
2022-11-16T19:37:57.515Z,99769.91
2022-11-16T19:40:25.286Z,99773.88
2022-11-16T19:42:52.155Z,99773.41
2022-11-16T19:45:18.938Z,99778.75
2022-11-16T19:47:45.695Z,99776.03
2022-11-16T19:50:12.447Z,99774.59
2022-11-16T19:52:39.260Z,99768.81
2022-11-16T19:55:06.012Z,99767.94
2022-11-16T19:57:32.757Z,99772.03
2022-11-16T19:59:59.526Z,99755.25
2022-11-16T20:02:26.281Z,99761.91
2022-11-16T20:04:53.298Z,99765.19
2022-11-16T20:07:21.157Z,99764.97
2022-11-16T20:09:53.134Z,99765.19
2022-11-16T20:12:20.180Z,99762.22
2022-11-16T20:14:47.005Z,99773.41
2022-11-16T20:17:13.768Z,99772.22
2022-11-16T20:19:40.517Z,99781.47
2022-11-16T20:22:08.255Z,99778.25
2022-11-16T20:24:35.037Z,99782.88
2022-11-16T20:27:01.779Z,99770.41
2022-11-16T20:29:28.530Z,99778.59
2022-11-16T20:31:55.276Z,99777.28
2022-11-16T20:34:22.141Z,99764.47
2022-11-16T20:36:50.683Z,99752.19
2022-11-16T20:39:17.453Z,99753.53
2022-11-16T20:41:44.253Z,99758.88
2022-11-16T20:44:15.987Z,99763.19
2022-11-16T20:46:44.193Z,99762.75
2022-11-16T20:49:10.995Z,99763.72
2022-11-16T20:51:37.808Z,99770.22
2022-11-16T20:54:04.579Z,99763.56
2022-11-16T20:56:31.421Z,99769.81
2022-11-16T20:58:58.587Z,99767.47
2022-11-16T21:01:28.881Z,99769.13
2022-11-16T21:03:55.868Z,99769.72
2022-11-16T21:06:22.694Z,99772.63
2022-11-16T21:08:49.477Z,99772.53
2022-11-16T21:11:16.403Z,99774.59
2022-11-16T21:14:02.000Z,99775.53
2022-11-16T21:16:28.748Z,99768.97
2022-11-16T21:18:55.663Z,99766.72
2022-11-16T21:21:22.459Z,99767.06
2022-11-16T21:23:51.708Z,99754.84
2022-11-16T21:26:18.510Z,99762.09
2022-11-16T21:28:45.488Z,99756.56
2022-11-16T21:31:12.286Z,99750.88
2022-11-16T21:33:39.046Z,99765.91
2022-11-16T21:36:05.886Z,99757.41
2022-11-16T21:38:32.642Z,99767.22
2022-11-16T21:40:59.387Z,99753.13
2022-11-16T21:43:26.146Z,99762.34
2022-11-16T21:45:52.954Z,99759.91
2022-11-16T21:48:19.698Z,99765.13
2022-11-16T21:50:46.476Z,99770.47
2022-11-16T21:53:13.223Z,99765.25
2022-11-16T21:55:39.961Z,99767.16
2022-11-16T21:58:06.820Z,99777.88
2022-11-16T22:00:33.623Z,99774.72
2022-11-16T22:03:00.413Z,99777.44
2022-11-16T22:05:46.115Z,99781.59
2022-11-16T22:08:12.919Z,99779.69
2022-11-16T22:10:39.770Z,99779.31
2022-11-16T22:13:06.533Z,99785.56
2022-11-16T22:15:33.292Z,99776.94
2022-11-16T22:18:00.039Z,99772.38
2022-11-16T22:20:26.804Z,99775.56
2022-11-16T22:22:53.554Z,99777.38
2022-11-16T22:25:20.644Z,99773.31
2022-11-16T22:28:18.610Z,99773.16
2022-11-16T22:30:34.822Z,99772.69
2022-11-16T22:33:01.595Z,99774.16
2022-11-16T22:35:28.392Z,99775.81
2022-11-16T22:37:55.900Z,99770.91
2022-11-16T22:40:22.698Z,99763.56
2022-11-16T22:42:49.473Z,99765.34
2022-11-16T22:45:16.211Z,99761.72
2022-11-16T22:47:42.988Z,99766.41
2022-11-16T22:50:09.744Z,99770.56
2022-11-16T22:52:36.528Z,99768.09
2022-11-16T22:55:03.324Z,99774.06
2022-11-16T22:57:30.135Z,99761.28
2022-11-16T22:59:56.933Z,99769.53
2022-11-16T23:02:23.701Z,99757.38
2022-11-16T23:04:50.462Z,99766.53
2022-11-16T23:07:17.237Z,99763.69
2022-11-16T23:09:44.059Z,99744.50
2022-11-16T23:12:29.439Z,99754.34
2022-11-16T23:15:14.655Z,99746.84
2022-11-16T23:17:41.458Z,99738.84
2022-11-16T23:20:26.918Z,99734.88
2022-11-16T23:23:12.672Z,99728.09
2022-11-16T23:25:57.992Z,99737.31
2022-11-16T23:28:24.808Z,99741.91
2022-11-16T23:30:51.563Z,99728.97
2022-11-16T23:33:38.335Z,99722.47
2022-11-16T23:36:05.089Z,99708.53
2022-11-16T23:38:31.901Z,99716.53
2022-11-16T23:40:58.664Z,99707.84
2022-11-16T23:43:44.332Z,99699.84
2022-11-16T23:46:11.098Z,99690.44
2022-11-16T23:48:37.852Z,99689.63
2022-11-16T23:51:04.600Z,99681.88
2022-11-16T23:53:31.384Z,99675.03
2022-11-16T23:56:02.706Z,99673.59
2022-11-16T23:58:32.167Z,99669.41
